sensor_id;sensor_type;location;lat;lon;timestamp;temperature;humidity
55151;DHT22;41041;43.162;20.538;2023-03-20T08:09:34;256.20;2252.80
55151;DHT22;41041;43.162;20.538;2023-03-20T08:12:00;256.20;2252.80
55151;DHT22;41041;43.162;20.538;2023-03-20T08:14:26;256.10;2252.80
55151;DHT22;41041;43.162;20.538;2023-03-20T08:16:52;256.40;2252.80
55151;DHT22;41041;43.162;20.538;2023-03-20T08:19:18;256.40;2252.80
55151;DHT22;41041;43.162;20.538;2023-03-20T08:21:43;256.80;2252.80
55151;DHT22;41041;43.162;20.538;2023-03-20T08:24:25;256.70;2252.80
55151;DHT22;41041;43.162;20.538;2023-03-20T08:26:50;256.90;2252.80
55151;DHT22;41041;43.162;20.538;2023-03-20T08:29:16;256.80;2252.80
55151;DHT22;41041;43.162;20.538;2023-03-20T08:31:47;256.70;2252.80
55151;DHT22;41041;43.162;20.538;2023-03-20T08:34:13;256.90;2252.80
55151;DHT22;41041;43.162;20.538;2023-03-20T08:36:39;281.60;2278.40
55151;DHT22;41041;43.162;20.538;2023-03-20T08:39:05;281.60;2278.40
55151;DHT22;41041;43.162;20.538;2023-03-20T08:41:32;281.80;2278.40
55151;DHT22;41041;43.162;20.538;2023-03-20T08:43:58;281.90;2278.40
55151;DHT22;41041;43.162;20.538;2023-03-20T08:46:24;282.20;2278.40
55151;DHT22;41041;43.162;20.538;2023-03-20T08:48:50;282.30;2278.40
55151;DHT22;41041;43.162;20.538;2023-03-20T08:51:16;282.40;2252.80
55151;DHT22;41041;43.162;20.538;2023-03-20T09:01:12;308.10;2227.20
55151;DHT22;41041;43.162;20.538;2023-03-20T09:08:33;333.10;2176.00
55151;DHT22;41041;43.162;20.538;2023-03-20T09:11:06;332.80;2176.00
55151;DHT22;41041;43.162;20.538;2023-03-20T09:13:32;332.80;2227.20
55151;DHT22;41041;43.162;20.538;2023-03-20T09:15:58;332.90;2201.60
55151;DHT22;41041;43.162;20.538;2023-03-20T09:18:24;333.00;2201.60
55151;DHT22;41041;43.162;20.538;2023-03-20T09:20:50;333.10;2176.00
55151;DHT22;41041;43.162;20.538;2023-03-20T09:23:17;333.10;2176.00
55151;DHT22;41041;43.162;20.538;2023-03-20T09:25:44;333.20;2227.20
55151;DHT22;41041;43.162;20.538;2023-03-20T09:28:09;333.20;2201.60
55151;DHT22;41041;43.162;20.538;2023-03-20T09:30:36;333.30;2201.60
55151;DHT22;41041;43.162;20.538;2023-03-20T09:33:01;333.30;2176.00
55151;DHT22;41041;43.162;20.538;2023-03-20T09:35:27;333.40;2176.00
55151;DHT22;41041;43.162;20.538;2023-03-20T09:37:53;333.50;2176.00
55151;DHT22;41041;43.162;20.538;2023-03-20T09:40:27;358.50;2176.00
55151;DHT22;41041;43.162;20.538;2023-03-20T09:53:58;358.90;2073.60
55151;DHT22;41041;43.162;20.538;2023-03-20T09:56:26;359.10;2048.00
55151;DHT22;41041;43.162;20.538;2023-03-20T09:58:58;359.00;2048.00
55151;DHT22;41041;43.162;20.538;2023-03-20T10:01:25;358.90;2073.60
55151;DHT22;41041;43.162;20.538;2023-03-20T10:04:00;359.00;2124.80
55151;DHT22;41041;43.162;20.538;2023-03-20T10:06:27;358.90;2099.20
55151;DHT22;41041;43.162;20.538;2023-03-20T10:08:53;358.90;2099.20
55151;DHT22;41041;43.162;20.538;2023-03-20T10:12:00;359.00;2099.20
55151;DHT22;41041;43.162;20.538;2023-03-20T10:14:37;359.20;2099.20
55151;DHT22;41041;43.162;20.538;2023-03-20T10:17:23;359.20;2073.60
55151;DHT22;41041;43.162;20.538;2023-03-20T10:19:58;359.20;2073.60
55151;DHT22;41041;43.162;20.538;2023-03-20T10:22:34;359.30;2048.00
55151;DHT22;41041;43.162;20.538;2023-03-20T10:27:50;384.20;2048.00
55151;DHT22;41041;43.162;20.538;2023-03-20T10:31:03;384.30;2048.00
55151;DHT22;41041;43.162;20.538;2023-03-20T10:41:50;384.90;2022.40
55151;DHT22;41041;43.162;20.538;2023-03-20T10:44:26;384.90;1996.80
55151;DHT22;41041;43.162;20.538;2023-03-20T10:46:55;384.90;1996.80
55151;DHT22;41041;43.162;20.538;2023-03-20T10:50:02;409.70;2022.40
55151;DHT22;41041;43.162;20.538;2023-03-20T10:52:33;409.80;2048.00
55151;DHT22;41041;43.162;20.538;2023-03-20T10:55:03;409.90;1945.60
55151;DHT22;41041;43.162;20.538;2023-03-20T10:57:36;410.00;1971.20
55151;DHT22;41041;43.162;20.538;2023-03-20T11:00:04;410.10;1996.80
55151;DHT22;41041;43.162;20.538;2023-03-20T11:02:35;410.30;1971.20
55151;DHT22;41041;43.162;20.538;2023-03-20T11:05:20;410.40;1945.60
55151;DHT22;41041;43.162;20.538;2023-03-20T11:07:49;410.40;1971.20
55151;DHT22;41041;43.162;20.538;2023-03-20T11:10:16;410.40;1945.60
55151;DHT22;41041;43.162;20.538;2023-03-20T11:12:44;435.30;1945.60
55151;DHT22;41041;43.162;20.538;2023-03-20T11:18:04;435.70;1996.80
55151;DHT22;41041;43.162;20.538;2023-03-20T11:48:43;460.90;1945.60
55151;DHT22;41041;43.162;20.538;2023-03-20T11:51:15;436.00;1894.40
55151;DHT22;41041;43.162;20.538;2023-03-20T11:56:26;436.00;1945.60
55151;DHT22;41041;43.162;20.538;2023-03-20T12:01:22;460.90;1971.20
55151;DHT22;41041;43.162;20.538;2023-03-20T12:06:24;461.10;1920.00
55151;DHT22;41041;43.162;20.538;2023-03-20T12:09:22;461.20;1894.40
55151;DHT22;41041;43.162;20.538;2023-03-20T12:14:52;461.40;1945.60
55151;DHT22;41041;43.162;20.538;2023-03-20T12:17:34;461.60;1945.60
55151;DHT22;41041;43.162;20.538;2023-03-20T12:22:46;486.40;1843.20
55151;DHT22;41041;43.162;20.538;2023-03-20T12:25:25;486.40;1843.20
55151;DHT22;41041;43.162;20.538;2023-03-20T12:43:54;486.70;1817.60
55151;DHT22;41041;43.162;20.538;2023-03-20T12:49:40;486.70;1792.00
55151;DHT22;41041;43.162;20.538;2023-03-20T12:55:03;486.90;1766.40
55151;DHT22;41041;43.162;20.538;2023-03-20T12:57:38;487.00;1715.20
55151;DHT22;41041;43.162;20.538;2023-03-20T13:13:57;487.00;1612.80
55151;DHT22;41041;43.162;20.538;2023-03-20T13:22:06;486.90;1638.40
55151;DHT22;41041;43.162;20.538;2023-03-20T13:29:59;487.10;1638.40
55151;DHT22;41041;43.162;20.538;2023-03-20T13:37:49;487.20;1612.80
55151;DHT22;41041;43.162;20.538;2023-03-20T13:40:19;487.20;1638.40
55151;DHT22;41041;43.162;20.538;2023-03-20T13:45:36;512.00;1612.80
55151;DHT22;41041;43.162;20.538;2023-03-20T13:48:18;512.30;1638.40
55151;DHT22;41041;43.162;20.538;2023-03-20T13:56:47;512.70;1612.80
55151;DHT22;41041;43.162;20.538;2023-03-20T13:59:41;512.80;1561.60
55151;DHT22;41041;43.162;20.538;2023-03-20T14:02:26;512.90;1561.60
55151;DHT22;41041;43.162;20.538;2023-03-20T14:05:13;512.90;1587.20
55151;DHT22;41041;43.162;20.538;2023-03-20T14:07:46;512.90;1561.60
55151;DHT22;41041;43.162;20.538;2023-03-20T14:15:19;512.80;1561.60
55151;DHT22;41041;43.162;20.538;2023-03-20T14:17:47;512.80;1612.80
55151;DHT22;41041;43.162;20.538;2023-03-20T14:20:34;512.80;1561.60
55151;DHT22;41041;43.162;20.538;2023-03-20T14:23:01;512.80;1536.00
55151;DHT22;41041;43.162;20.538;2023-03-20T14:25:38;512.70;1536.00
55151;DHT22;41041;43.162;20.538;2023-03-20T14:31:33;512.60;1561.60
55151;DHT22;41041;43.162;20.538;2023-03-20T14:36:50;512.40;1561.60
55151;DHT22;41041;43.162;20.538;2023-03-20T14:39:39;512.40;1561.60
55151;DHT22;41041;43.162;20.538;2023-03-20T14:44:55;512.50;1561.60
55151;DHT22;41041;43.162;20.538;2023-03-20T14:50:27;512.30;1587.20
55151;DHT22;41041;43.162;20.538;2023-03-20T14:53:03;512.40;1612.80
55151;DHT22;41041;43.162;20.538;2023-03-20T14:56:19;512.40;1587.20
55151;DHT22;41041;43.162;20.538;2023-03-20T15:07:09;512.30;1561.60
55151;DHT22;41041;43.162;20.538;2023-03-20T15:09:41;512.20;1561.60
55151;DHT22;41041;43.162;20.538;2023-03-20T15:12:09;512.20;1561.60
55151;DHT22;41041;43.162;20.538;2023-03-20T15:14:42;512.20;1561.60
55151;DHT22;41041;43.162;20.538;2023-03-20T15:17:17;512.20;1587.20
55151;DHT22;41041;43.162;20.538;2023-03-20T15:19:43;512.50;1587.20
55151;DHT22;41041;43.162;20.538;2023-03-20T15:22:17;512.70;1536.00
55151;DHT22;41041;43.162;20.538;2023-03-20T15:24:54;512.80;1536.00
55151;DHT22;41041;43.162;20.538;2023-03-20T15:27:23;512.80;1484.80
55151;DHT22;41041;43.162;20.538;2023-03-20T15:29:53;512.80;1484.80
55151;DHT22;41041;43.162;20.538;2023-03-20T15:32:19;512.80;1459.20
55151;DHT22;41041;43.162;20.538;2023-03-20T15:34:46;512.80;1459.20
55151;DHT22;41041;43.162;20.538;2023-03-20T15:37:15;512.70;1510.40
55151;DHT22;41041;43.162;20.538;2023-03-20T15:39:48;512.40;1612.80
55151;DHT22;41041;43.162;20.538;2023-03-20T15:42:17;512.10;1587.20
55151;DHT22;41041;43.162;20.538;2023-03-20T15:44:45;487.30;1561.60
55151;DHT22;41041;43.162;20.538;2023-03-20T15:47:17;487.10;1587.20
55151;DHT22;41041;43.162;20.538;2023-03-20T15:49:52;487.00;1638.40
55151;DHT22;41041;43.162;20.538;2023-03-20T15:52:25;486.80;1664.00
55151;DHT22;41041;43.162;20.538;2023-03-20T15:54:53;486.70;1612.80
55151;DHT22;41041;43.162;20.538;2023-03-20T15:57:24;486.60;1612.80
55151;DHT22;41041;43.162;20.538;2023-03-20T15:59:51;486.50;1638.40
55151;DHT22;41041;43.162;20.538;2023-03-20T16:02:17;486.40;1664.00
55151;DHT22;41041;43.162;20.538;2023-03-20T16:04:49;461.70;1638.40
55151;DHT22;41041;43.162;20.538;2023-03-20T16:07:25;461.70;1638.40
55151;DHT22;41041;43.162;20.538;2023-03-20T16:09:51;461.60;1638.40
55151;DHT22;41041;43.162;20.538;2023-03-20T16:12:18;461.60;1664.00
55151;DHT22;41041;43.162;20.538;2023-03-20T16:24:43;461.60;1664.00
55151;DHT22;41041;43.162;20.538;2023-03-20T16:27:14;461.30;1689.60
55151;DHT22;41041;43.162;20.538;2023-03-20T16:29:43;461.10;1689.60
55151;DHT22;41041;43.162;20.538;2023-03-20T16:34:49;461.30;1740.80
55151;DHT22;41041;43.162;20.538;2023-03-20T16:37:30;461.00;1715.20
55151;DHT22;41041;43.162;20.538;2023-03-20T16:47:35;461.00;1715.20
55151;DHT22;41041;43.162;20.538;2023-03-20T16:50:22;460.80;1715.20
55151;DHT22;41041;43.162;20.538;2023-03-20T17:17:38;436.00;1740.80
55151;DHT22;41041;43.162;20.538;2023-03-20T17:20:06;435.70;1766.40
55151;DHT22;41041;43.162;20.538;2023-03-20T17:22:32;435.60;1766.40
55151;DHT22;41041;43.162;20.538;2023-03-20T17:24:58;435.50;1766.40
55151;DHT22;41041;43.162;20.538;2023-03-20T17:27:24;435.50;1766.40
55151;DHT22;41041;43.162;20.538;2023-03-20T17:29:51;435.50;1766.40
55151;DHT22;41041;43.162;20.538;2023-03-20T17:32:21;435.40;1766.40
55151;DHT22;41041;43.162;20.538;2023-03-20T17:34:50;435.40;1766.40
55151;DHT22;41041;43.162;20.538;2023-03-20T17:37:25;435.40;1792.00
55151;DHT22;41041;43.162;20.538;2023-03-20T17:39:51;435.40;1792.00
55151;DHT22;41041;43.162;20.538;2023-03-20T17:42:21;435.40;1792.00
55151;DHT22;41041;43.162;20.538;2023-03-20T17:44:49;435.30;1792.00
55151;DHT22;41041;43.162;20.538;2023-03-20T17:47:16;435.30;1792.00
55151;DHT22;41041;43.162;20.538;2023-03-20T17:49:46;435.20;1792.00
55151;DHT22;41041;43.162;20.538;2023-03-20T17:52:14;410.50;1817.60
55151;DHT22;41041;43.162;20.538;2023-03-20T17:54:42;410.50;1817.60
55151;DHT22;41041;43.162;20.538;2023-03-20T17:59:54;410.50;1792.00
55151;DHT22;41041;43.162;20.538;2023-03-20T18:02:20;410.50;1792.00
55151;DHT22;41041;43.162;20.538;2023-03-20T18:04:46;410.40;1792.00
55151;DHT22;41041;43.162;20.538;2023-03-20T18:07:12;410.40;1817.60
55151;DHT22;41041;43.162;20.538;2023-03-20T18:09:42;410.40;1817.60
55151;DHT22;41041;43.162;20.538;2023-03-20T18:12:25;410.40;1843.20
55151;DHT22;41041;43.162;20.538;2023-03-20T18:14:51;410.20;1868.80
55151;DHT22;41041;43.162;20.538;2023-03-20T18:17:19;410.20;1868.80
55151;DHT22;41041;43.162;20.538;2023-03-20T18:19:45;410.10;1894.40
55151;DHT22;41041;43.162;20.538;2023-03-20T18:36:50;410.00;1920.00
55151;DHT22;41041;43.162;20.538;2023-03-20T18:41:47;409.80;1971.20
55151;DHT22;41041;43.162;20.538;2023-03-20T18:44:13;384.80;1971.20
55151;DHT22;41041;43.162;20.538;2023-03-20T18:46:38;384.80;1971.20
55151;DHT22;41041;43.162;20.538;2023-03-20T18:49:05;384.80;1971.20
55151;DHT22;41041;43.162;20.538;2023-03-20T18:51:31;384.70;1971.20
55151;DHT22;41041;43.162;20.538;2023-03-20T18:53:57;384.70;1971.20
55151;DHT22;41041;43.162;20.538;2023-03-20T18:56:25;384.80;1971.20
55151;DHT22;41041;43.162;20.538;2023-03-20T18:58:52;384.60;1971.20
55151;DHT22;41041;43.162;20.538;2023-03-20T19:01:20;384.60;1996.80
55151;DHT22;41041;43.162;20.538;2023-03-20T19:03:46;384.50;1996.80
55151;DHT22;41041;43.162;20.538;2023-03-20T19:06:15;384.50;2022.40
55151;DHT22;41041;43.162;20.538;2023-03-20T19:08:42;384.50;2022.40
55151;DHT22;41041;43.162;20.538;2023-03-20T19:11:08;384.40;2022.40
55151;DHT22;41041;43.162;20.538;2023-03-20T19:13:44;384.50;2022.40
55151;DHT22;41041;43.162;20.538;2023-03-20T19:16:33;384.50;1996.80
55151;DHT22;41041;43.162;20.538;2023-03-20T19:19:05;384.60;2022.40
55151;DHT22;41041;43.162;20.538;2023-03-20T19:21:32;384.60;1996.80
55151;DHT22;41041;43.162;20.538;2023-03-20T19:24:00;384.60;1996.80
55151;DHT22;41041;43.162;20.538;2023-03-20T19:26:28;384.60;1996.80
55151;DHT22;41041;43.162;20.538;2023-03-20T19:28:55;384.60;1996.80
55151;DHT22;41041;43.162;20.538;2023-03-20T19:31:22;384.60;2048.00
55151;DHT22;41041;43.162;20.538;2023-03-20T19:33:51;384.50;2048.00
55151;DHT22;41041;43.162;20.538;2023-03-20T19:38:49;384.40;2073.60
55151;DHT22;41041;43.162;20.538;2023-03-20T19:41:15;384.40;2073.60
55151;DHT22;41041;43.162;20.538;2023-03-20T19:43:41;384.40;2048.00
55151;DHT22;41041;43.162;20.538;2023-03-20T19:46:13;384.30;2099.20
55151;DHT22;41041;43.162;20.538;2023-03-20T19:48:44;384.20;2099.20
55151;DHT22;41041;43.162;20.538;2023-03-20T19:51:16;384.10;2150.40
55151;DHT22;41041;43.162;20.538;2023-03-20T20:10:49;384.00;2176.00
55151;DHT22;41041;43.162;20.538;2023-03-20T20:13:18;359.10;2201.60
55151;DHT22;41041;43.162;20.538;2023-03-20T20:15:48;358.90;2227.20
55151;DHT22;41041;43.162;20.538;2023-03-20T21:32:18;333.50;2252.80
55151;DHT22;41041;43.162;20.538;2023-03-20T21:34:46;333.30;2252.80
55151;DHT22;41041;43.162;20.538;2023-03-20T21:37:16;333.10;2278.40
55151;DHT22;41041;43.162;20.538;2023-03-20T21:39:43;333.10;2278.40
55151;DHT22;41041;43.162;20.538;2023-03-20T21:42:09;333.10;2304.00
55151;DHT22;41041;43.162;20.538;2023-03-20T21:44:37;333.10;2304.00
55151;DHT22;41041;43.162;20.538;2023-03-20T21:47:09;333.10;2329.60
55151;DHT22;41041;43.162;20.538;2023-03-20T21:49:35;333.10;2304.00
55151;DHT22;41041;43.162;20.538;2023-03-20T21:52:15;333.10;2329.60
55151;DHT22;41041;43.162;20.538;2023-03-20T21:54:46;333.10;2329.60
55151;DHT22;41041;43.162;20.538;2023-03-20T22:26:34;333.10;2304.00
55151;DHT22;41041;43.162;20.538;2023-03-20T22:29:00;332.80;2329.60
55151;DHT22;41041;43.162;20.538;2023-03-20T22:31:25;308.10;2304.00
55151;DHT22;41041;43.162;20.538;2023-03-20T22:33:51;308.10;2304.00
55151;DHT22;41041;43.162;20.538;2023-03-20T22:36:17;308.00;2304.00
